Richmond Beach, Washington
Current Conditions -  °F | °C
As of 10:36 AM on Friday 31 Oct 2014 (Local Time) from KPAE Reporting Station
Light Rain Light Rain  
Wind Chill: 49°   Ceiling: 4600
Heat Index: 49°   Visibility: 4mi
Dew Point: 46°   Wind: 3mph
Humidity: 90%   Direction: 290°WNW
Pressure: 29.79"   Gusts: NA
Location:  47.7424°N, 122.371°W
Report Text: KPAE 311736Z 29003KT 4SM -RA BR FEW002 OVC046 09/08 A2979 RMK AO2 P0005 T00940078
Loading
Personal Weather Stations






























Interactive Weather Map
Tropical Storm Tracking
New forecast layout! Learn more

10-Day Weather Forecast

Advertisements
Track Severe Weather on mobile